Flight Track Log - Related Links

Times and Time Zones

All times are in EDT time to prevent confusion due to time zone crossing. See the N508QS flight status page for this flight to view local times or setup timezone preferences in your user account.

Time Position Orientation Groundspeed Altitude Reporting Facility
EDT Latitude Longitude Course Direction KTS MPH feet Rate Location/Type
Tue 09:00:01 AM 37.6406 -122.3617 North 164 189 2,000  Level Oakland Center
Tue 09:01:01 AM 37.6917 -122.3192 33° Northeast 236 272 5,400 4,050 Climbing Oakland Center
Tue 09:02:01 AM 37.7606 -122.2814 23° Northeast 274 315 10,100 3,700 Climbing Oakland Center
Tue 09:03:01 AM 37.8514 -122.2667 North 336 387 12,800 3,174 Climbing Oakland Center
Tue 09:04:02 AM 37.9533 -122.2514 North 368 423 16,500 3,372 Climbing Oakland Center
Tue 09:05:00 AM 38.2155 -122.3714 North  Level Estimated
Tue 09:05:02 AM 38.0611 -122.2561 358° North 390 449 19,600  Level Oakland Center
Tue 09:06:02 AM 38.1747 -122.2597 359° North 409 471 22,900 2,975 Climbing Oakland Center
Tue 09:07:03 AM 38.2919 -122.2642 358° North 421 484 25,600 2,529 Climbing Oakland Center
Tue 09:08:03 AM 38.4175 -122.2692 358° North 448 516 28,000 2,450 Climbing Oakland Center
Tue 09:09:03 AM 38.5489 -122.2750 358° North 470 541 30,500 2,450 Climbing Oakland Center
Tue 09:10:03 AM 38.7025 -122.2811 358° North 485 558 32,900 2,033 Climbing Oakland Center
Tue 09:11:04 AM 38.8447 -122.2872 358° North 504 580 34,600 1,934 Climbing Oakland Center
Tue 09:12:04 AM 38.9867 -122.2931 358° North 507 583 36,800 1,785 Climbing Oakland Center
Tue 09:13:05 AM 39.1297 -122.2994 358° North 511 588 38,200 1,587 Climbing Oakland Center
Tue 09:14:05 AM 39.2725 -122.3047 358° North 511 588 40,000 900 Climbing Oakland Center
Tue 09:15:05 AM 39.4147 -122.3111 358° North 510 587 40,000  Level Oakland Center
Tue 09:16:06 AM 39.5394 -122.3144 359° North 509 586 40,000  Level Oakland Center
Tue 09:17:06 AM 39.6811 -122.3206 358° North 509 586 40,000  Level Oakland Center
Tue 09:18:07 AM 39.8222 -122.3267 358° North 508 585 40,000  Level Oakland Center
Tue 09:19:07 AM 39.9636 -122.3322 358° North 507 583 40,000  Level Oakland Center
Tue 09:20:07 AM 40.1239 -122.3411 358° North 510 587 40,000  Level Oakland Center
Tue 09:21:08 AM 40.2636 -122.3439 359° North 522 601 40,000  Level Oakland Center
Tue 09:22:08 AM 40.4047 -122.3500 358° North 514 592 40,000  Level Oakland Center
Tue 09:23:09 AM 40.5450 -122.3567 358° North 508 585 40,000  Level Oakland Center
Tue 09:24:09 AM 40.6867 -122.3611 359° North 509 586 40,000  Level Oakland Center
Tue 09:25:10 AM 40.8269 -122.3664 358° North 506 582 40,000  Level Oakland Center
Tue 09:26:11 AM 40.9678 -122.3728 358° North 507 583 40,000  Level Oakland Center
Tue 09:27:11 AM 41.1089 -122.3806 358° North 510 587 40,000  Level Oakland Center
Tue 09:28:12 AM 41.2508 -122.3878 358° North 510 587 40,000  Level Oakland Center
Tue 09:29:07 AM 41.3914 -122.3944 358° North 509 586 40,000  Level Seattle Center
Tue 09:30:07 AM 41.5192 -122.3978 359° North 508 585 40,000  Level Seattle Center
Tue 09:31:08 AM 41.6611 -122.4044 358° North 509 586 40,000  Level Seattle Center
Tue 09:32:08 AM 41.8033 -122.4111 358° North 508 585 40,000  Level Seattle Center
Tue 09:33:09 AM 41.9467 -122.4158 359° North 511 588 40,000  Level Seattle Center
Tue 09:34:09 AM 42.0925 -122.4219 358° North 515 593 40,000  Level Seattle Center
Tue 09:35:10 AM 42.2375 -122.4272 358° North 514 592 40,000  Level Seattle Center
Tue 09:36:10 AM 42.3822 -122.4325 358° North 515 593 40,000  Level Seattle Center
Tue 09:37:11 AM 42.5281 -122.4394 358° North 519 597 40,000  Level Seattle Center
Tue 09:38:11 AM 42.6736 -122.4458 358° North 520 598 40,000  Level Seattle Center
Tue 09:39:12 AM 42.8433 -122.4533 358° North 528 608 40,000  Level Seattle Center
Tue 09:40:13 AM 42.9894 -122.4594 358° North 527 606 40,000  Level Seattle Center
Tue 09:41:13 AM 43.1356 -122.4664 358° North 526 605 40,000  Level Seattle Center
Tue 09:42:14 AM 43.2828 -122.4728 358° North 528 608 40,000  Level Seattle Center
Tue 09:43:14 AM 43.4286 -122.4789 358° North 526 605 40,000  Level Seattle Center
Tue 09:44:15 AM 43.5736 -122.4872 358° North 525 604 40,000  Level Seattle Center
Tue 09:45:15 AM 43.7203 -122.4931 358° North 527 606 40,000  Level Seattle Center
Tue 09:46:16 AM 43.8692 -122.4997 358° North 533 613 40,000  Level Seattle Center
Tue 09:47:16 AM 44.0147 -122.5058 358° North 530 610 40,000  Level Seattle Center
Tue 09:48:17 AM 44.1553 -122.5144 357° North 513 590 40,000  Level Seattle Center
Tue 09:49:18 AM 44.2997 -122.5206 358° North 519 597 40,000  Level Seattle Center
Tue 09:50:18 AM 44.4450 -122.5275 358° North 523 602 40,000  Level Seattle Center
Tue 09:51:19 AM 44.5894 -122.5356 358° North 524 603 40,000  Level Seattle Center
Tue 09:52:19 AM 44.7633 -122.5433 358° North 523 602 40,000  Level Seattle Center
Tue 09:53:20 AM 44.8875 -122.5486 358° North 526 605 40,000  Level Seattle Center
Tue 09:54:20 AM 45.0331 -122.5572 358° North 527 606 40,000  Level Seattle Center
Tue 09:55:21 AM 45.1756 -122.5639 358° North 520 598 40,000  Level Seattle Center
Tue 09:56:22 AM 45.3181 -122.5694 358° North 516 594 40,000  Level Seattle Center
Tue 09:57:22 AM 45.4917 -122.5783 358° North 524 603 40,000  Level Seattle Center
Tue 09:58:23 AM 45.6403 -122.5856 358° North 534 615 40,000  Level Seattle Center
Tue 09:59:23 AM 45.7833 -122.5992 356° North 523 602 40,000 -744 Level Seattle Center
Tue 10:00:24 AM 45.9217 -122.6336 350° North 510 587 38,500 -2,066 Descending Seattle Center
Tue 10:01:25 AM 46.0603 -122.6678 350° North 509 586 35,800 -2,678 Descending Seattle Center
Tue 10:02:25 AM 46.1978 -122.7011 350° North 504 580 33,100 -2,628 Descending Seattle Center
Tue 10:03:26 AM 46.3356 -122.7356 350° North 505 581 30,500 -2,628 Descending Seattle Center
Tue 10:04:26 AM 46.4736 -122.7722 350° North 505 581 27,800 -2,628 Descending Seattle Center
Tue 10:05:27 AM 46.6058 -122.8086 349° North 489 563 25,200 -2,459 Descending Seattle Center
Tue 10:06:28 AM 46.7344 -122.8081 360° North 469 540 22,800 -2,629 Descending Seattle Center
Tue 10:06:56 AM 46.8053 -122.7792 16° North 471 542 21,300 -2,700 Descending Seattle Center
Tue 10:07:28 AM 46.8583 -122.7517 20° North 465 535 20,100 -2,600 Descending Seattle Center
Tue 10:07:56 AM 46.9222 -122.7231 17° North 426 490 18,700 -2,656 Descending Seattle Center
Tue 10:08:29 AM 46.9803 -122.6953 18° North 424 488 17,400 -2,507 Descending Seattle Center
Tue 10:09:03 AM 47.0456 -122.6664 17° North 402 463 15,900 -2,459 Descending Seattle Center
Tue 10:09:30 AM 47.0944 -122.6422 19° North 401 461 14,900 -2,200 Descending Seattle Center
Tue 10:10:03 AM 47.1486 -122.6172 17° North 382 440 13,700 -2,200 Descending Seattle Center
Tue 10:10:30 AM 47.1942 -122.5947 19° North 381 438 12,700 -2,291 Descending Seattle Center
Tue 10:10:58 AM 47.2336 -122.5678 25° Northeast 353 406 11,600 -2,066 Descending Seattle Center
Tue 10:11:31 AM 47.2728 -122.5181 41° Northeast 345 397 10,600 -1,574 Descending Seattle Center
Tue 10:11:59 AM 47.3022 -122.4783 42° Northeast 317 365 10,000 -1,475 Descending Seattle Center
Tue 10:12:32 AM 47.3442 -122.4589 17° North 307 353 9,100 -1,700 Descending Seattle Center
Tue 10:12:59 AM 47.3814 -122.4578 North 281 323 8,300 -2,000 Descending Seattle Center
Tue 10:13:32 AM 47.4242 -122.4531 North 286 329 7,100 -2,262 Descending Seattle Center
Tue 10:14:00 AM 47.4597 -122.4508 North 277 319 6,000 -2,262 Descending Seattle Center
Tue 10:14:33 AM 47.5006 -122.4533 358° North 272 313 4,800 -2,200 Descending Seattle Center
Tue 10:15:00 AM 47.5333 -122.4694 342° North 266 306 3,800 -1,967 Descending Seattle Center
Tue 10:15:34 AM 47.5714 -122.4856 344° North 267 307 2,800 -1,418 Descending Seattle Center
Tue 10:15:55 AM 47.5983 -122.4994 341° North 258 297 2,500 -600 Descending Seattle Center
Tue 10:16:34 AM 47.6367 -122.5136 346° North 249 287 2,200 -295 Descending Seattle Center
Tue 10:16:56 AM 47.6558 -122.4975 30° Northeast 208 239 2,200  Level Seattle Center
Tue 10:17:35 AM 47.6842 -122.4686 34° Northeast 207 238 2,200  Level Seattle Center
Tue 10:17:50 AM 47.6836 -122.4492 92° East 198 228 2,200  Level Seattle Center
Tue 10:18:36 AM 47.6614 -122.4150 134° Southeast 162 186 2,200  Level Seattle Center
Tue 10:18:51 AM 47.6511 -122.4081 156° South 142 163 2,200 -197 Level Seattle Center
Tue 10:19:37 AM 47.6219 -122.3811 148° Southeast 154 177 2,000 -400 Descending Seattle Center
Tue 10:19:51 AM 47.6139 -122.3758 156° South 147 169 1,800 -800 Descending Seattle Center
Tue 10:20:37 AM 47.5903 -122.3539 148° Southeast 136 157 1,200 -689 Descending Seattle Center
Tue 10:20:52 AM 47.5850 -122.3492 149° Southeast 116 133 1,100 -590 Descending Seattle Center
Tue 10:21:38 AM 47.5633 -122.3322 152° Southeast 112 129 600 -627 Descending Seattle Center
Tue 10:21:59 AM 47.5567 -122.3253 145° Southeast 105 121 400 -295 Descending Seattle Center
Tue 10:22:39 AM 47.5422 -122.3150 154° Southeast 109 125 300 -150 Descending Seattle Center
Tue 10:24:00 AM 47.5300 -122.3020 131° Southeast  Level Estimated

Login

Don't have an account? Register now (free) for customized features, flight alerts, and more!